Time;durP1;ratioP1;P1;durP2;ratioP2;P2;SDS_P1;SDS_P2;PMS_P1;PMS_P2;Temp;Humidity;BMP_temperature;BMP_pressure;BME280_temperature;BME280_humidity;BME280_pressure;Samples;Min_cycle;Max_cycle;Signal;HPM_P1;HPM_P2
2022/05/03 00:00:26;;;;;;;5.22;3.45;;;;;;;;;;2081532;28;20207;-53
2022/05/03 00:01:47;;;;;;;3.42;3.13;;;;;;;;;;2082256;28;20613;-54
2022/05/03 00:02:55;;;;;;;3.97;3.50;;;;;;;;;;2082657;28;20180;-52
2022/05/03 00:03:55;;;;;;;3.72;3.45;;;;;;;;;;2082365;28;20543;-53
2022/05/03 00:05:01;;;;;;;4.78;3.72;;;;;;;;;;2083028;28;20199;-51
2022/05/03 00:06:04;;;;;;;3.63;3.33;;;;;;;;;;2083424;28;20153;-54
2022/05/03 00:07:24;;;;;;;3.50;3.30;;;;;;;;;;2083556;28;20179;-56
2022/05/03 00:08:31;;;;;;;5.15;3.70;;;;;;;;;;2082861;28;20214;-55
2022/05/03 00:09:39;;;;;;;3.65;3.33;;;;;;;;;;2083397;28;20637;-55
2022/05/03 00:11:12;;;;;;;3.70;3.40;;;;;;;;;;2083353;28;20188;-54
2022/05/03 00:12:15;;;;;;;3.97;3.67;;;;;;;;;;2065854;28;20189;-56
2022/05/03 00:13:19;;;;;;;4.55;3.63;;;;;;;;;;2078510;28;20379;-53
2022/05/03 00:14:22;;;;;;;4.25;3.67;;;;;;;;;;2082738;28;20292;-55
2022/05/03 00:15:24;;;;;;;3.65;3.35;;;;;;;;;;2083351;28;20270;-55
2022/05/03 00:16:26;;;;;;;4.07;3.30;;;;;;;;;;2083473;28;20179;-56
2022/05/03 00:17:26;;;;;;;3.95;3.65;;;;;;;;;;2083188;28;20188;-53
2022/05/03 00:18:27;;;;;;;3.60;3.33;;;;;;;;;;2082823;28;20223;-56
2022/05/03 00:19:27;;;;;;;3.97;3.60;;;;;;;;;;2082954;28;20630;-55
2022/05/03 00:20:27;;;;;;;4.25;3.83;;;;;;;;;;2082436;28;20227;-56
2022/05/03 00:21:28;;;;;;;3.95;3.53;;;;;;;;;;2083131;28;20173;-53
2022/05/03 00:22:29;;;;;;;3.63;3.38;;;;;;;;;;2082317;28;20210;-53
2022/05/03 00:23:29;;;;;;;3.50;3.30;;;;;;;;;;2081633;28;20176;-54
2022/05/03 00:24:30;;;;;;;3.10;2.90;;;;;;;;;;2081510;28;20172;-51
2022/05/03 00:25:30;;;;;;;3.10;2.90;;;;;;;;;;2081700;28;20741;-50
2022/05/03 00:26:31;;;;;;;4.00;3.70;;;;;;;;;;2081561;28;20211;-54
2022/05/03 00:27:32;;;;;;;3.40;3.20;;;;;;;;;;2082612;28;20540;-52
2022/05/03 00:28:33;;;;;;;3.30;3.10;;;;;;;;;;2080945;28;20184;-50
2022/05/03 00:29:34;;;;;;;2.90;2.70;;;;;;;;;;2081249;28;20164;-51
2022/05/03 00:30:35;;;;;;;3.45;3.25;;;;;;;;;;2081757;28;20231;-53
2022/05/03 00:31:36;;;;;;;4.00;3.60;;;;;;;;;;2081557;28;20156;-53
2022/05/03 00:32:37;;;;;;;3.35;3.15;;;;;;;;;;2081619;28;20864;-56
2022/05/03 00:33:37;;;;;;;3.65;3.38;;;;;;;;;;2081252;28;20625;-50
2022/05/03 00:34:37;;;;;;;3.80;3.50;;;;;;;;;;2081022;28;20176;-55
2022/05/03 00:35:38;;;;;;;3.17;2.88;;;;;;;;;;2081663;28;20211;-52
2022/05/03 00:36:38;;;;;;;3.50;3.20;;;;;;;;;;2081406;28;20167;-53
2022/05/03 00:37:38;;;;;;;4.18;3.78;;;;;;;;;;2080758;28;20668;-52
2022/05/03 00:38:39;;;;;;;3.95;3.17;;;;;;;;;;2081680;28;20672;-50
2022/05/03 00:39:39;;;;;;;3.75;3.45;;;;;;;;;;2081114;28;20164;-56
2022/05/03 00:40:44;;;;;;;4.07;3.47;;;;;;;;;;2081128;28;20615;-51
2022/05/03 00:41:50;;;;;;;4.28;3.35;;;;;;;;;;2073648;28;20168;-53
2022/05/03 00:43:09;;;;;;;4.60;3.83;;;;;;;;;;2081293;28;20168;-52
2022/05/03 00:45:38;;;;;;;3.67;3.30;;;;;;;;;;2082797;28;20161;-55
2022/05/03 00:46:39;;;;;;;3.10;2.90;;;;;;;;;;2085050;28;20172;-53
2022/05/03 00:47:39;;;;;;;3.60;3.30;;;;;;;;;;2085074;28;20180;-55
2022/05/03 00:48:58;;;;;;;3.53;3.22;;;;;;;;;;2083100;28;20168;-54
2022/05/03 00:50:01;;;;;;;3.47;3.28;;;;;;;;;;2082658;28;20668;-53
2022/05/03 00:51:01;;;;;;;3.97;3.67;;;;;;;;;;2083884;28;20192;-55
2022/05/03 00:52:17;;;;;;;3.47;3.28;;;;;;;;;;2084647;28;20232;-56
2022/05/03 00:53:21;;;;;;;3.58;3.28;;;;;;;;;;2084294;28;20694;-56
2022/05/03 00:54:24;;;;;;;4.03;3.65;;;;;;;;;;2083324;28;20218;-51
2022/05/03 00:55:40;;;;;;;3.40;3.10;;;;;;;;;;2082412;28;20165;-56
2022/05/03 00:56:49;;;;;;;3.75;3.45;;;;;;;;;;2082299;28;20171;-55
2022/05/03 00:58:14;;;;;;;3.35;3.15;;;;;;;;;;2082059;28;20306;-50
2022/05/03 00:59:34;;;;;;;3.53;3.30;;;;;;;;;;2079122;28;20251;-51
2022/05/03 01:00:39;;;;;;;4.25;3.40;;;;;;;;;;2064712;28;20244;-53
2022/05/03 01:02:02;;;;;;;4.18;3.78;;;;;;;;;;2079435;28;20197;-52
2022/05/03 01:03:25;;;;;;;3.55;3.35;;;;;;;;;;2081499;28;20225;-53
2022/05/03 01:04:43;;;;;;;3.58;3.28;;;;;;;;;;2081029;28;20660;-52
2022/05/03 01:06:02;;;;;;;3.78;3.47;;;;;;;;;;2081791;28;20161;-52
2022/05/03 01:07:21;;;;;;;3.30;3.03;;;;;;;;;;2080544;28;20184;-53
2022/05/03 01:08:34;;;;;;;3.35;3.15;;;;;;;;;;2079504;28;20225;-51
2022/05/03 01:09:41;;;;;;;3.90;3.60;;;;;;;;;;2081432;28;20176;-51
2022/05/03 01:11:03;;;;;;;3.60;3.40;;;;;;;;;;2081129;28;20703;-51
2022/05/03 01:12:08;;;;;;;3.42;3.22;;;;;;;;;;2081535;28;20167;-51
2022/05/03 01:13:15;;;;;;;3.88;3.55;;;;;;;;;;2080912;28;20179;-51
2022/05/03 01:14:15;;;;;;;3.10;2.90;;;;;;;;;;2080699;28;20166;-54
2022/05/03 01:15:16;;;;;;;3.53;3.15;;;;;;;;;;2081224;28;20194;-54
2022/05/03 01:16:29;;;;;;;3.42;3.22;;;;;;;;;;2081440;28;20184;-51
2022/05/03 01:17:38;;;;;;;3.25;2.97;;;;;;;;;;2081642;28;20164;-52
2022/05/03 01:18:52;;;;;;;3.45;3.15;;;;;;;;;;2081297;28;20196;-50
2022/05/03 01:20:00;;;;;;;3.38;3.17;;;;;;;;;;2081320;28;20189;-55
2022/05/03 01:21:06;;;;;;;3.40;3.10;;;;;;;;;;2081072;28;20195;-52
2022/05/03 01:22:21;;;;;;;3.50;3.20;;;;;;;;;;2081619;28;20679;-52
2022/05/03 01:23:27;;;;;;;2.85;2.65;;;;;;;;;;2081306;28;20167;-52
2022/05/03 01:24:28;;;;;;;3.33;3.13;;;;;;;;;;2081200;28;20172;-51
2022/05/03 01:25:33;;;;;;;3.80;3.55;;;;;;;;;;2081325;28;20179;-51
2022/05/03 01:26:52;;;;;;;3.85;3.50;;;;;;;;;;2081771;28;20160;-53
2022/05/03 01:27:52;;;;;;;4.05;3.75;;;;;;;;;;2083974;28;20555;-52
2022/05/03 01:28:52;;;;;;;3.95;3.65;;;;;;;;;;2081480;28;20192;-51
2022/05/03 01:29:57;;;;;;;4.15;3.65;;;;;;;;;;2081226;28;20712;-52
2022/05/03 01:30:58;;;;;;;3.55;3.25;;;;;;;;;;2081116;28;20199;-54
2022/05/03 01:31:58;;;;;;;3.88;3.63;;;;;;;;;;2081688;28;20207;-51
2022/05/03 01:33:05;;;;;;;4.35;3.95;;;;;;;;;;2080746;28;20181;-50
2022/05/03 01:34:06;;;;;;;3.60;3.30;;;;;;;;;;2080813;28;20235;-52
2022/05/03 01:35:07;;;;;;;3.70;3.40;;;;;;;;;;2081611;28;20262;-51
2022/05/03 01:36:08;;;;;;;3.70;3.50;;;;;;;;;;2080755;28;20160;-53
2022/05/03 01:37:25;;;;;;;3.95;3.55;;;;;;;;;;2081447;28;20187;-50
2022/05/03 01:38:33;;;;;;;3.70;3.40;;;;;;;;;;2081617;28;20161;-52
2022/05/03 01:39:41;;;;;;;3.72;3.50;;;;;;;;;;2080592;28;20168;-54
2022/05/03 01:40:44;;;;;;;3.40;3.20;;;;;;;;;;2073548;28;20213;-51
2022/05/03 01:42:00;;;;;;;4.32;3.10;;;;;;;;;;2081230;28;20168;-52
2022/05/03 01:43:25;;;;;;;3.55;3.35;;;;;;;;;;2081417;28;20172;-52
2022/05/03 01:44:48;;;;;;;3.80;3.50;;;;;;;;;;2080942;28;20172;-52
2022/05/03 01:46:03;;;;;;;3.70;3.50;;;;;;;;;;2081028;28;20168;-52
2022/05/03 01:47:25;;;;;;;4.30;3.97;;;;;;;;;;2081127;28;20239;-56
2022/05/03 01:50:20;;;;;;;3.97;3.67;;;;;;;;;;2081396;28;20255;-52
2022/05/03 01:51:33;;;;;;;3.20;3.00;;;;;;;;;;2082730;28;20208;-54
2022/05/03 01:52:34;;;;;;;4.20;3.40;;;;;;;;;;2074582;28;20252;-53
2022/05/03 01:53:34;;;;;;;3.60;3.38;;;;;;;;;;2074393;28;20192;-54
2022/05/03 01:54:58;;;;;;;3.38;3.17;;;;;;;;;;2073899;28;20534;-52
2022/05/03 01:56:07;;;;;;;3.30;3.10;;;;;;;;;;2082090;28;20160;-50
2022/05/03 01:57:19;;;;;;;3.80;3.50;;;;;;;;;;2083131;28;20648;-54
2022/05/03 01:58:27;;;;;;;3.85;3.55;;;;;;;;;;2083011;28;20192;-50
2022/05/03 01:59:30;;;;;;;3.63;3.33;;;;;;;;;;2082869;28;20163;-55
2022/05/03 02:00:34;;;;;;;3.15;2.95;;;;;;;;;;2082685;28;20342;-52
2022/05/03 02:01:40;;;;;;;3.83;3.53;;;;;;;;;;2082834;28;20164;-54
2022/05/03 02:02:51;;;;;;;3.88;3.63;;;;;;;;;;2082819;28;20234;-53
2022/05/03 02:03:58;;;;;;;3.85;3.55;;;;;;;;;;2082958;28;20693;-50
2022/05/03 02:05:07;;;;;;;3.90;3.60;;;;;;;;;;2082331;28;20166;-55
2022/05/03 02:06:14;;;;;;;3.65;3.45;;;;;;;;;;2082542;28;20196;-55
2022/05/03 02:07:29;;;;;;;3.70;3.40;;;;;;;;;;2082744;28;20726;-50
2022/05/03 02:08:48;;;;;;;3.75;3.40;;;;;;;;;;2082876;28;20275;-52
2022/05/03 02:10:13;;;;;;;4.55;3.45;;;;;;;;;;2082613;28;20182;-52
2022/05/03 02:11:13;;;;;;;3.63;3.40;;;;;;;;;;2082379;28;20205;-51
2022/05/03 02:12:18;;;;;;;3.55;3.25;;;;;;;;;;2083202;28;20270;-53
2022/05/03 02:13:21;;;;;;;3.80;3.42;;;;;;;;;;2082689;28;20172;-53
2022/05/03 02:14:44;;;;;;;4.03;3.67;;;;;;;;;;2082671;28;20230;-51
2022/05/03 02:15:48;;;;;;;4.28;3.58;;;;;;;;;;2083067;28;20148;-53
2022/05/03 02:16:53;;;;;;;3.88;3.40;;;;;;;;;;2083351;28;20164;-51
2022/05/03 02:18:01;;;;;;;3.88;3.40;;;;;;;;;;2082952;28;20268;-51
2022/05/03 02:19:07;;;;;;;3.83;3.50;;;;;;;;;;2083148;28;20573;-51
2022/05/03 02:20:20;;;;;;;3.83;3.58;;;;;;;;;;2083806;28;20176;-55
2022/05/03 02:21:29;;;;;;;3.50;3.20;;;;;;;;;;2083180;28;20214;-54
2022/05/03 02:22:42;;;;;;;3.55;3.25;;;;;;;;;;2082931;28;20258;-52
2022/05/03 02:24:03;;;;;;;4.80;4.30;;;;;;;;;;2083125;28;20176;-52
2022/05/03 02:25:11;;;;;;;4.15;3.40;;;;;;;;;;2083297;28;20254;-52
2022/05/03 02:26:30;;;;;;;4.63;3.97;;;;;;;;;;2082238;28;20176;-52
2022/05/03 02:27:31;;;;;;;4.30;4.03;;;;;;;;;;2082287;28;20165;-52
2022/05/03 02:28:50;;;;;;;4.35;3.95;;;;;;;;;;2082927;28;20180;-51
2022/05/03 02:29:50;;;;;;;4.43;4.03;;;;;;;;;;2076860;28;20196;-50
2022/05/03 02:30:51;;;;;;;4.40;4.07;;;;;;;;;;2083303;28;20669;-51
2022/05/03 02:32:02;;;;;;;4.33;4.03;;;;;;;;;;2082179;28;20208;-54
2022/05/03 02:33:05;;;;;;;4.32;4.03;;;;;;;;;;2078477;28;20181;-53
2022/05/03 02:34:24;;;;;;;4.88;4.38;;;;;;;;;;2082444;28;20208;-53
2022/05/03 02:35:30;;;;;;;4.28;3.97;;;;;;;;;;2082601;28;20179;-58
2022/05/03 02:36:31;;;;;;;4.60;3.42;;;;;;;;;;2082754;28;20180;-51
2022/05/03 02:37:38;;;;;;;4.00;3.70;;;;;;;;;;2083369;28;20203;-53
2022/05/03 02:38:59;;;;;;;4.20;3.90;;;;;;;;;;2082945;28;20176;-52
2022/05/03 02:40:00;;;;;;;4.28;3.83;;;;;;;;;;2083426;28;20298;-55
2022/05/03 02:41:02;;;;;;;4.13;3.87;;;;;;;;;;2082994;28;20779;-52
2022/05/03 02:42:04;;;;;;;4.23;3.83;;;;;;;;;;2082598;28;20804;-52
2022/05/03 02:43:05;;;;;;;4.47;3.87;;;;;;;;;;2082752;28;20168;-51
2022/05/03 02:44:05;;;;;;;4.10;3.80;;;;;;;;;;2082472;28;20180;-53
2022/05/03 02:45:07;;;;;;;3.97;3.67;;;;;;;;;;2083180;28;20222;-50
2022/05/03 02:46:10;;;;;;;3.53;3.33;;;;;;;;;;2083102;28;20211;-50
2022/05/03 02:47:21;;;;;;;4.30;4.00;;;;;;;;;;2082706;28;20184;-51
2022/05/03 02:48:26;;;;;;;3.63;3.42;;;;;;;;;;2083022;28;20168;-54
2022/05/03 02:49:45;;;;;;;4.03;3.72;;;;;;;;;;2083402;28;20184;-53
2022/05/03 02:50:53;;;;;;;3.90;3.67;;;;;;;;;;2082645;28;20176;-52
2022/05/03 02:51:56;;;;;;;3.90;3.65;;;;;;;;;;2082346;28;20165;-53
2022/05/03 02:52:58;;;;;;;4.50;4.10;;;;;;;;;;2082102;28;20164;-52
2022/05/03 02:54:03;;;;;;;3.78;3.47;;;;;;;;;;2082149;28;20176;-51
2022/05/03 02:55:03;;;;;;;3.87;3.57;;;;;;;;;;2082577;28;20165;-52
2022/05/03 02:56:25;;;;;;;3.70;3.50;;;;;;;;;;2083383;28;20182;-50
2022/05/03 02:57:32;;;;;;;3.50;3.30;;;;;;;;;;2083229;28;20171;-52
2022/05/03 02:58:38;;;;;;;3.90;3.50;;;;;;;;;;2083386;28;20218;-56
2022/05/03 03:02:36;;;;;;;3.75;3.50;;;;;;;;;;2082218;28;20169;-50
2022/05/03 03:03:36;;;;;;;4.03;3.83;;;;;;;;;;2082650;28;20207;-56
2022/05/03 03:04:41;;;;;;;4.32;4.03;;;;;;;;;;2082798;28;20183;-54
2022/05/03 03:05:42;;;;;;;4.10;3.80;;;;;;;;;;2082889;28;20184;-52
2022/05/03 03:06:43;;;;;;;3.33;3.13;;;;;;;;;;2083645;28;20181;-52
2022/05/03 03:07:49;;;;;;;4.20;3.83;;;;;;;;;;2083131;28;20172;-54
2022/05/03 03:08:54;;;;;;;4.23;4.00;;;;;;;;;;2075076;28;20184;-52
2022/05/03 03:09:54;;;;;;;3.73;3.27;;;;;;;;;;2075851;28;20169;-51
2022/05/03 03:10:54;;;;;;;4.37;3.97;;;;;;;;;;2082748;28;20208;-52
2022/05/03 03:12:08;;;;;;;4.23;3.93;;;;;;;;;;2082915;28;20406;-52
2022/05/03 03:13:17;;;;;;;4.07;3.53;;;;;;;;;;2082980;28;20175;-54
2022/05/03 03:14:21;;;;;;;4.57;3.93;;;;;;;;;;2083050;28;20176;-56
2022/05/03 03:15:26;;;;;;;4.00;3.70;;;;;;;;;;2083039;28;20203;-53
2022/05/03 03:16:34;;;;;;;4.23;3.50;;;;;;;;;;2082705;28;20181;-53
2022/05/03 03:17:40;;;;;;;5.03;3.70;;;;;;;;;;2083092;28;20664;-51
2022/05/03 03:18:42;;;;;;;3.85;3.55;;;;;;;;;;2083076;28;20180;-53
2022/05/03 03:19:56;;;;;;;4.93;4.53;;;;;;;;;;2082823;28;20195;-51
2022/05/03 03:20:58;;;;;;;3.53;3.33;;;;;;;;;;2083483;28;20755;-51
2022/05/03 03:22:00;;;;;;;3.47;3.27;;;;;;;;;;2082183;28;20177;-50
2022/05/03 03:23:02;;;;;;;4.47;4.17;;;;;;;;;;2082365;28;20168;-50
2022/05/03 03:24:04;;;;;;;4.40;4.00;;;;;;;;;;2081447;28;20198;-53
2022/05/03 03:25:05;;;;;;;4.90;4.50;;;;;;;;;;2078110;28;20164;-51
2022/05/03 03:26:06;;;;;;;4.80;4.40;;;;;;;;;;2082630;28;20183;-52
2022/05/03 03:27:08;;;;;;;4.70;4.30;;;;;;;;;;2082378;28;20214;-52
2022/05/03 03:28:12;;;;;;;4.80;4.30;;;;;;;;;;2088540;28;20175;-52
2022/05/03 03:29:12;;;;;;;4.30;4.00;;;;;;;;;;2090664;28;20195;-53
2022/05/03 03:30:13;;;;;;;4.60;4.27;;;;;;;;;;2085241;28;20526;-52
2022/05/03 03:31:15;;;;;;;4.60;4.20;;;;;;;;;;2082477;28;20211;-53
2022/05/03 03:32:17;;;;;;;4.33;3.93;;;;;;;;;;2081771;28;20207;-51
2022/05/03 03:33:18;;;;;;;4.00;3.70;;;;;;;;;;2081692;28;20268;-53
2022/05/03 03:34:20;;;;;;;4.07;3.73;;;;;;;;;;2081919;28;20188;-50
2022/05/03 03:35:20;;;;;;;3.78;3.47;;;;;;;;;;2082196;28;20175;-54
2022/05/03 03:36:22;;;;;;;4.70;4.30;;;;;;;;;;2082167;28;20183;-52
2022/05/03 03:37:23;;;;;;;4.33;4.03;;;;;;;;;;2082162;28;20664;-53
2022/05/03 03:38:30;;;;;;;4.10;3.80;;;;;;;;;;2082260;28;20175;-52
2022/05/03 03:39:30;;;;;;;4.07;3.73;;;;;;;;;;2082404;28;20168;-50
2022/05/03 03:40:31;;;;;;;4.03;3.67;;;;;;;;;;2081987;28;20245;-51
2022/05/03 03:41:31;;;;;;;4.13;3.83;;;;;;;;;;2082361;28;20176;-52
2022/05/03 03:42:31;;;;;;;4.33;3.93;;;;;;;;;;2081212;28;20748;-50
2022/05/03 03:43:32;;;;;;;4.22;3.92;;;;;;;;;;2081825;28;20172;-51
2022/05/03 03:44:33;;;;;;;4.30;4.00;;;;;;;;;;2081838;28;20168;-52
2022/05/03 03:45:33;;;;;;;4.30;4.00;;;;;;;;;;2082411;28;20260;-54
2022/05/03 03:46:33;;;;;;;4.50;4.10;;;;;;;;;;2082298;28;20532;-51
2022/05/03 03:47:37;;;;;;;4.40;4.03;;;;;;;;;;2082326;28;20555;-54
2022/05/03 03:48:38;;;;;;;3.97;3.60;;;;;;;;;;2082256;28;20190;-52
2022/05/03 03:49:39;;;;;;;5.57;4.30;;;;;;;;;;2082043;28;20589;-50
2022/05/03 03:50:43;;;;;;;3.73;3.47;;;;;;;;;;2081355;28;20625;-53
2022/05/03 03:51:44;;;;;;;4.20;3.90;;;;;;;;;;2081650;28;20218;-53
2022/05/03 03:52:46;;;;;;;4.50;4.10;;;;;;;;;;2082126;28;20251;-52
2022/05/03 03:53:47;;;;;;;4.37;3.97;;;;;;;;;;2082198;28;20181;-51
2022/05/03 03:54:47;;;;;;;4.57;4.20;;;;;;;;;;2081007;28;20280;-49
2022/05/03 03:55:48;;;;;;;4.67;4.27;;;;;;;;;;2081609;28;20532;-51
2022/05/03 03:56:49;;;;;;;5.37;4.97;;;;;;;;;;2081968;28;20172;-51
2022/05/03 03:57:49;;;;;;;4.67;4.30;;;;;;;;;;2081405;28;20632;-53
2022/05/03 03:58:50;;;;;;;4.50;4.20;;;;;;;;;;2081633;28;20176;-51
2022/05/03 03:59:50;;;;;;;4.77;4.23;;;;;;;;;;2081035;28;20250;-51
2022/05/03 04:00:50;;;;;;;4.80;4.50;;;;;;;;;;2081478;28;20247;-52
2022/05/03 04:01:51;;;;;;;5.10;4.47;;;;;;;;;;2082000;28;20184;-51
2022/05/03 04:02:51;;;;;;;4.83;4.43;;;;;;;;;;2082639;28;20167;-52
2022/05/03 04:03:52;;;;;;;5.17;4.67;;;;;;;;;;2081847;28;20558;-48
2022/05/03 04:04:52;;;;;;;17.33;5.60;;;;;;;;;;2081942;28;20211;-51
2022/05/03 04:05:53;;;;;;;7.27;4.23;;;;;;;;;;2082096;28;20223;-54
2022/05/03 04:06:53;;;;;;;7.90;4.17;;;;;;;;;;2081270;28;20660;-52
2022/05/03 04:07:53;;;;;;;6.23;4.73;;;;;;;;;;2081756;28;20188;-51
2022/05/03 04:08:54;;;;;;;6.77;4.80;;;;;;;;;;2082278;28;20263;-53
2022/05/03 04:09:54;;;;;;;14.57;4.80;;;;;;;;;;2086177;28;20532;-51
2022/05/03 04:10:54;;;;;;;7.73;4.73;;;;;;;;;;2090110;28;20230;-51
2022/05/03 04:11:54;;;;;;;11.73;5.43;;;;;;;;;;2085087;28;20233;-55
2022/05/03 04:12:55;;;;;;;14.40;5.50;;;;;;;;;;2081445;28;20218;-50
2022/05/03 04:13:56;;;;;;;7.30;4.87;;;;;;;;;;2081248;28;20179;-52
2022/05/03 04:14:57;;;;;;;4.37;3.93;;;;;;;;;;2081772;28;20637;-52
2022/05/03 04:15:57;;;;;;;7.30;4.63;;;;;;;;;;2087109;28;20187;-51
2022/05/03 04:16:57;;;;;;;7.00;4.13;;;;;;;;;;2089744;28;20182;-53
2022/05/03 04:17:58;;;;;;;7.20;5.03;;;;;;;;;;2082691;28;20258;-52
2022/05/03 04:18:58;;;;;;;6.50;5.40;;;;;;;;;;2081852;28;20180;-54
2022/05/03 04:19:58;;;;;;;7.23;4.70;;;;;;;;;;2081661;28;20696;-50
2022/05/03 04:20:59;;;;;;;7.37;5.73;;;;;;;;;;2081681;28;20192;-52
2022/05/03 04:22:12;;;;;;;7.70;5.67;;;;;;;;;;2081504;28;20175;-52
2022/05/03 04:23:20;;;;;;;8.67;5.80;;;;;;;;;;2082009;28;20698;-51
2022/05/03 04:24:20;;;;;;;7.07;5.83;;;;;;;;;;2081319;28;20625;-51
2022/05/03 04:25:21;;;;;;;5.73;5.07;;;;;;;;;;2081245;28;20259;-51
2022/05/03 04:26:21;;;;;;;6.57;5.83;;;;;;;;;;2081269;28;20191;-52
2022/05/03 04:27:21;;;;;;;7.93;6.40;;;;;;;;;;2081234;28;20694;-52
2022/05/03 04:28:22;;;;;;;7.13;6.07;;;;;;;;;;2072972;28;20180;-53
2022/05/03 04:29:22;;;;;;;5.60;5.13;;;;;;;;;;2081006;28;20168;-53
2022/05/03 04:30:22;;;;;;;5.30;4.90;;;;;;;;;;2081104;28;20231;-53
2022/05/03 04:31:29;;;;;;;7.60;4.83;;;;;;;;;;2081313;28;20193;-52
2022/05/03 04:32:33;;;;;;;5.53;5.03;;;;;;;;;;2081337;28;20684;-52
2022/05/03 04:33:33;;;;;;;6.30;5.33;;;;;;;;;;2081891;28;20179;-55
2022/05/03 04:34:34;;;;;;;5.13;4.77;;;;;;;;;;2080568;28;20665;-53
2022/05/03 04:35:34;;;;;;;5.10;4.70;;;;;;;;;;2081467;28;20230;-51
2022/05/03 04:36:35;;;;;;;7.93;4.83;;;;;;;;;;2081908;28;20164;-51
2022/05/03 04:37:36;;;;;;;5.40;4.90;;;;;;;;;;2079965;28;20183;-50
2022/05/03 04:38:36;;;;;;;5.03;4.63;;;;;;;;;;2080088;28;20208;-51
2022/05/03 04:39:36;;;;;;;5.63;5.13;;;;;;;;;;2081104;28;20164;-51
2022/05/03 04:40:37;;;;;;;5.53;4.97;;;;;;;;;;2080813;28;20220;-51
2022/05/03 04:41:37;;;;;;;4.70;4.37;;;;;;;;;;2081933;28;20164;-50
2022/05/03 04:42:37;;;;;;;5.33;4.90;;;;;;;;;;2081866;28;20176;-54
2022/05/03 04:43:37;;;;;;;5.50;5.00;;;;;;;;;;2080973;28;20279;-50
2022/05/03 04:44:38;;;;;;;5.73;5.03;;;;;;;;;;2080831;28;20173;-57
2022/05/03 04:45:38;;;;;;;9.53;5.67;;;;;;;;;;2081676;28;20251;-52
2022/05/03 04:46:38;;;;;;;9.07;5.60;;;;;;;;;;2081686;28;20246;-57
2022/05/03 04:47:38;;;;;;;8.07;4.90;;;;;;;;;;2081713;28;20545;-50
2022/05/03 04:48:40;;;;;;;9.70;4.60;;;;;;;;;;2081051;28;20613;-50
2022/05/03 04:49:40;;;;;;;5.73;4.60;;;;;;;;;;2081992;28;20191;-50
2022/05/03 04:50:41;;;;;;;5.90;5.40;;;;;;;;;;2081580;28;20164;-49
2022/05/03 04:51:41;;;;;;;6.77;5.33;;;;;;;;;;2091326;22;20318;-59
2022/05/03 04:52:41;;;;;;;5.20;4.70;;;;;;;;;;2078296;28;20242;-56
2022/05/03 04:53:41;;;;;;;6.03;5.30;;;;;;;;;;2080593;28;20171;-55
2022/05/03 04:54:42;;;;;;;5.50;4.77;;;;;;;;;;2080525;28;20214;-55
2022/05/03 04:55:42;;;;;;;6.63;5.20;;;;;;;;;;2080510;28;20182;-54
2022/05/03 04:56:53;;;;;;;5.30;4.83;;;;;;;;;;2057508;28;20189;-56
2022/05/03 04:57:53;;;;;;;6.73;5.10;;;;;;;;;;2067136;28;20276;-55
2022/05/03 04:58:55;;;;;;;5.43;4.83;;;;;;;;;;2080957;28;20165;-55
2022/05/03 04:59:55;;;;;;;5.03;4.50;;;;;;;;;;2081285;28;20189;-54
2022/05/03 05:00:55;;;;;;;12.63;4.80;;;;;;;;;;2080796;28;20164;-58
2022/05/03 05:01:55;;;;;;;5.13;4.55;;;;;;;;;;2074177;28;20209;-56
2022/05/03 05:02:56;;;;;;;6.53;4.80;;;;;;;;;;2073381;28;20175;-54
2022/05/03 05:03:56;;;;;;;7.73;4.83;;;;;;;;;;2073577;28;20623;-52
2022/05/03 05:04:56;;;;;;;6.65;5.22;;;;;;;;;;2073159;28;20246;-51
2022/05/03 05:05:57;;;;;;;5.70;5.13;;;;;;;;;;2073415;28;20575;-53
2022/05/03 05:06:57;;;;;;;5.73;5.10;;;;;;;;;;2073250;28;20169;-56
2022/05/03 05:08:04;;;;;;;7.00;5.13;;;;;;;;;;2073362;28;20721;-52
2022/05/03 05:09:04;;;;;;;4.87;4.53;;;;;;;;;;2071049;28;20256;-57
2022/05/03 05:10:23;;;;;;;7.15;6.38;;;;;;;;;;2072829;28;20169;-55
2022/05/03 05:11:23;;;;;;;12.57;10.23;;;;;;;;;;2073377;28;20169;-58
2022/05/03 05:12:23;;;;;;;9.67;7.57;;;;;;;;;;2073037;28;20185;-54
2022/05/03 05:13:25;;;;;;;8.80;6.22;;;;;;;;;;2073378;28;20161;-54
2022/05/03 05:14:25;;;;;;;9.55;7.95;;;;;;;;;;2072700;28;20575;-56
2022/05/03 05:15:25;;;;;;;10.97;8.87;;;;;;;;;;2071849;28;20211;-56
2022/05/03 05:16:26;;;;;;;10.83;9.77;;;;;;;;;;2063143;28;20878;-54
2022/05/03 05:17:26;;;;;;;14.63;12.32;;;;;;;;;;2070132;28;20196;-54
2022/05/03 05:18:27;;;;;;;10.95;8.38;;;;;;;;;;2072287;28;20235;-51
2022/05/03 05:19:27;;;;;;;10.40;9.40;;;;;;;;;;2071758;28;20184;-51
2022/05/03 05:20:28;;;;;;;13.45;12.02;;;;;;;;;;2072862;28;20272;-54
2022/05/03 05:21:28;;;;;;;8.88;8.02;;;;;;;;;;2073207;28;20201;-53
2022/05/03 05:22:28;;;;;;;6.23;5.73;;;;;;;;;;2072915;28;20169;-52
2022/05/03 05:23:28;;;;;;;10.82;8.50;;;;;;;;;;2072262;28;20743;-52
2022/05/03 05:24:29;;;;;;;5.70;5.20;;;;;;;;;;2072058;28;20617;-56
2022/05/03 05:25:29;;;;;;;5.18;4.68;;;;;;;;;;2071648;28;20180;-55
2022/05/03 05:26:29;;;;;;;4.60;4.10;;;;;;;;;;2070414;28;20181;-61
2022/05/03 05:27:30;;;;;;;5.90;5.03;;;;;;;;;;2072750;28;20231;-55
2022/05/03 05:28:30;;;;;;;5.63;4.78;;;;;;;;;;2072964;28;20173;-56
2022/05/03 05:29:30;;;;;;;5.65;5.10;;;;;;;;;;2072974;28;20688;-55
2022/05/03 05:30:30;;;;;;;6.47;4.47;;;;;;;;;;2072228;28;20196;-54
2022/05/03 05:31:31;;;;;;;4.40;4.10;;;;;;;;;;2074364;28;20296;-54
2022/05/03 05:32:31;;;;;;;5.68;5.22;;;;;;;;;;2073939;28;20276;-52
2022/05/03 05:33:31;;;;;;;6.35;5.00;;;;;;;;;;2073113;28;20186;-54
2022/05/03 05:34:31;;;;;;;6.35;5.35;;;;;;;;;;2072730;28;20220;-58
2022/05/03 05:35:32;;;;;;;5.88;5.35;;;;;;;;;;2073440;28;20595;-58
2022/05/03 05:36:32;;;;;;;6.47;4.88;;;;;;;;;;2073232;28;20181;-49
2022/05/03 05:37:33;;;;;;;4.90;4.50;;;;;;;;;;2072426;28;20263;-52
2022/05/03 05:38:33;;;;;;;6.90;4.85;;;;;;;;;;2072334;28;20736;-51
2022/05/03 05:39:33;;;;;;;5.43;4.82;;;;;;;;;;2073219;28;20244;-51
2022/05/03 05:40:34;;;;;;;5.90;5.40;;;;;;;;;;2072522;28;20283;-56
2022/05/03 05:41:34;;;;;;;5.00;4.60;;;;;;;;;;2064154;28;20204;-54
2022/05/03 05:42:35;;;;;;;6.20;5.63;;;;;;;;;;2072374;28;20165;-58
2022/05/03 05:43:35;;;;;;;7.40;5.50;;;;;;;;;;2067247;28;20277;-51
2022/05/03 05:44:36;;;;;;;12.03;5.43;;;;;;;;;;2064613;28;20259;-51
2022/05/03 05:45:37;;;;;;;6.20;5.47;;;;;;;;;;2066875;28;20176;-58
2022/05/03 05:46:37;;;;;;;6.03;5.53;;;;;;;;;;2069532;28;20654;-53
2022/05/03 05:47:37;;;;;;;5.78;5.38;;;;;;;;;;2072766;28;20173;-54
2022/05/03 05:48:39;;;;;;;6.00;5.07;;;;;;;;;;2072644;28;20242;-54
2022/05/03 05:49:39;;;;;;;6.10;5.60;;;;;;;;;;2072424;28;20168;-55
2022/05/03 05:50:40;;;;;;;5.82;5.18;;;;;;;;;;2073076;28;20185;-53
2022/05/03 05:51:40;;;;;;;5.13;4.72;;;;;;;;;;2072598;28;20296;-52
2022/05/03 05:54:19;;;;;;;6.57;5.27;;;;;;;;;;2047613;29;20183;-55
2022/05/03 05:55:19;;;;;;;8.98;6.00;;;;;;;;;;2053084;28;20793;-50
2022/05/03 05:56:19;;;;;;;5.70;4.93;;;;;;;;;;2048080;28;20171;-56
2022/05/03 05:57:20;;;;;;;11.43;7.80;;;;;;;;;;2048310;29;20215;-57
2022/05/03 05:58:20;;;;;;;23.23;6.53;;;;;;;;;;2048118;28;20179;-56
2022/05/03 05:59:20;;;;;;;23.95;7.50;;;;;;;;;;2048735;28;20601;-58
2022/05/03 06:00:21;;;;;;;16.95;6.65;;;;;;;;;;2064937;28;20217;-55
2022/05/03 06:01:26;;;;;;;15.18;7.13;;;;;;;;;;2072798;28;20181;-57
2022/05/03 06:02:26;;;;;;;10.88;6.65;;;;;;;;;;2072136;28;20580;-55
2022/05/03 06:03:28;;;;;;;6.03;5.45;;;;;;;;;;2073368;28;20181;-53
2022/05/03 06:04:28;;;;;;;17.13;6.68;;;;;;;;;;2072790;28;20172;-53
2022/05/03 06:05:30;;;;;;;21.77;12.77;;;;;;;;;;2073105;28;20177;-50
2022/05/03 06:06:35;;;;;;;16.73;6.32;;;;;;;;;;2072752;28;20172;-52
2022/05/03 06:07:36;;;;;;;13.38;6.28;;;;;;;;;;2072793;28;20212;-51
2022/05/03 06:08:36;;;;;;;21.63;6.40;;;;;;;;;;2072092;28;20197;-52
2022/05/03 06:09:36;;;;;;;18.13;7.43;;;;;;;;;;2072671;28;20167;-52
2022/05/03 06:10:36;;;;;;;14.32;5.28;;;;;;;;;;2072473;28;20179;-48
2022/05/03 06:11:37;;;;;;;7.10;5.20;;;;;;;;;;2072459;28;20209;-51
2022/05/03 06:12:37;;;;;;;8.80;5.70;;;;;;;;;;2072178;28;20551;-52
2022/05/03 06:13:38;;;;;;;12.90;6.28;;;;;;;;;;2072504;28;20189;-57
2022/05/03 06:14:38;;;;;;;19.88;7.85;;;;;;;;;;2071274;28;20200;-51
2022/05/03 06:15:38;;;;;;;9.13;5.43;;;;;;;;;;2072467;28;20203;-54
2022/05/03 06:16:49;;;;;;;20.17;7.88;;;;;;;;;;2068876;28;20185;-54
2022/05/03 06:17:49;;;;;;;5.15;4.75;;;;;;;;;;2068949;28;20267;-54
2022/05/03 06:18:49;;;;;;;8.82;5.03;;;;;;;;;;2071842;28;20244;-52
2022/05/03 06:19:49;;;;;;;7.22;5.03;;;;;;;;;;2068959;28;20185;-53
2022/05/03 06:20:50;;;;;;;7.88;4.53;;;;;;;;;;2071809;28;20251;-48
2022/05/03 06:21:50;;;;;;;10.50;8.20;;;;;;;;;;2073042;28;20192;-55
2022/05/03 06:22:51;;;;;;;14.43;6.80;;;;;;;;;;2072803;28;20180;-54
2022/05/03 06:23:51;;;;;;;10.68;6.03;;;;;;;;;;2072399;28;20669;-57
2022/05/03 06:24:52;;;;;;;5.50;4.32;;;;;;;;;;2072471;28;20567;-52
2022/05/03 06:25:52;;;;;;;5.07;4.57;;;;;;;;;;2072777;28;20168;-55
2022/05/03 06:26:54;;;;;;;5.53;4.88;;;;;;;;;;2070919;28;20241;-53
2022/05/03 06:27:54;;;;;;;5.07;4.28;;;;;;;;;;2069684;28;20322;-52
2022/05/03 06:28:56;;;;;;;4.85;4.45;;;;;;;;;;2070131;28;20181;-55
2022/05/03 06:29:56;;;;;;;8.70;7.80;;;;;;;;;;2072514;28;20173;-52
2022/05/03 06:30:56;;;;;;;4.95;4.50;;;;;;;;;;2072761;28;20171;-56